createdAt,value
2019-01-26T00:01:04.937Z,-2.50
2019-01-26T00:03:55.837Z,-2.50
2019-01-26T00:06:46.425Z,-2.50
2019-01-26T00:09:36.894Z,-2.50
2019-01-26T00:12:27.778Z,-2.50
2019-01-26T00:15:19.157Z,-2.50
2019-01-26T00:18:09.857Z,-2.50
2019-01-26T00:21:00.722Z,-2.50
2019-01-26T00:23:51.508Z,-2.50
2019-01-26T00:26:41.976Z,-2.50
2019-01-26T00:29:32.517Z,-2.60
2019-01-26T00:32:22.857Z,-2.60
2019-01-26T00:35:13.093Z,-2.60
2019-01-26T00:38:04.403Z,-2.60
2019-01-26T00:40:55.436Z,-2.50
2019-01-26T00:43:46.317Z,-2.40
2019-01-26T00:46:36.831Z,-2.40
2019-01-26T00:49:26.677Z,-2.30
2019-01-26T00:52:17.397Z,-2.30
2019-01-26T00:55:08.399Z,-2.30
2019-01-26T00:57:59.136Z,-2.30
2019-01-26T01:00:50.819Z,-2.30
2019-01-26T01:03:41.071Z,-2.20
2019-01-26T01:06:31.277Z,-2.20
2019-01-26T01:09:22.400Z,-2.20
2019-01-26T01:12:12.397Z,-2.20
2019-01-26T01:15:03.277Z,-2.30
2019-01-26T01:17:53.897Z,-2.30
2019-01-26T01:20:44.444Z,-2.30
2019-01-26T01:23:35.005Z,-2.30
2019-01-26T01:26:25.537Z,-2.30
2019-01-26T01:29:15.849Z,-2.30
2019-01-26T01:32:05.999Z,-2.30
2019-01-26T01:34:56.513Z,-2.30
2019-01-26T01:37:47.499Z,-2.30
2019-01-26T01:40:38.217Z,-2.10
2019-01-26T01:43:28.339Z,-2.20
2019-01-26T01:46:18.643Z,-2.20
2019-01-26T01:49:09.299Z,-2.20
2019-01-26T01:52:00.586Z,-2.20
2019-01-26T01:54:50.837Z,-2.20
2019-01-26T01:57:41.157Z,-2.10
2019-01-26T02:00:31.520Z,-2.10
2019-01-26T02:03:21.845Z,-2.00
2019-01-26T02:06:12.950Z,-2.00
2019-01-26T02:09:05.556Z,-2.00
2019-01-26T02:11:56.437Z,-2.00
2019-01-26T02:14:46.922Z,-2.00
2019-01-26T02:17:37.857Z,-1.90
2019-01-26T02:20:28.577Z,-2.00
2019-01-26T02:23:19.277Z,-2.00
2019-01-26T02:26:10.180Z,-2.00
2019-01-26T02:29:01.241Z,-2.00
2019-01-26T02:31:52.257Z,-2.00
2019-01-26T02:34:43.141Z,-2.00
2019-01-26T02:37:33.376Z,-2.10
2019-01-26T02:40:24.239Z,-2.10
2019-01-26T02:43:14.337Z,-2.10
2019-01-26T02:46:04.168Z,-2.10
2019-01-26T02:48:54.977Z,-2.00
2019-01-26T02:51:47.261Z,-2.00
2019-01-26T02:54:38.035Z,-1.90
2019-01-26T02:57:28.535Z,-1.80
2019-01-26T03:04:14.334Z,-1.70
2019-01-26T03:07:04.331Z,-1.70
2019-01-26T03:09:56.036Z,-1.60
2019-01-26T03:12:47.954Z,-1.60
2019-01-26T03:15:38.531Z,-1.60
2019-01-26T03:18:29.393Z,-1.60
2019-01-26T03:21:19.278Z,-1.50
2019-01-26T03:24:10.194Z,-1.50
2019-01-26T03:27:00.151Z,-1.50
2019-01-26T03:29:50.194Z,-1.50
2019-01-26T03:32:40.634Z,-1.50
2019-01-26T03:35:30.918Z,-1.40
2019-01-26T03:38:21.202Z,-1.40
2019-01-26T03:41:11.631Z,-1.40
2019-01-26T03:44:02.593Z,-1.40
2019-01-26T03:46:53.391Z,-1.40
2019-01-26T03:49:44.152Z,-1.40
2019-01-26T03:52:34.894Z,-1.40
2019-01-26T03:55:25.830Z,-1.40
2019-01-26T03:58:15.933Z,-1.40
2019-01-26T04:01:07.155Z,-1.40
2019-01-26T04:03:58.492Z,-1.30
2019-01-26T04:06:49.212Z,-1.30
2019-01-26T04:09:39.532Z,-1.20
2019-01-26T04:12:29.487Z,-1.10
2019-01-26T04:15:20.072Z,-1.10
2019-01-26T04:18:11.133Z,-1.10
2019-01-26T04:21:01.052Z,-1.10
2019-01-26T04:23:51.292Z,-1.10
2019-01-26T04:26:41.708Z,-1.10
2019-01-26T04:29:33.054Z,-1.00
2019-01-26T04:32:23.134Z,-1.00
2019-01-26T04:35:13.913Z,-1.00
2019-01-26T04:38:04.773Z,-1.00
2019-01-26T04:40:55.034Z,-1.10
2019-01-26T04:43:45.380Z,-1.00
2019-01-26T04:46:36.413Z,-1.10
2019-01-26T04:49:26.912Z,-1.00
2019-01-26T04:52:18.813Z,-1.10
2019-01-26T04:55:09.480Z,-1.10
2019-01-26T04:58:00.272Z,-1.10
2019-01-26T05:00:50.535Z,-1.20
2019-01-26T05:03:41.054Z,-1.20
2019-01-26T05:06:31.741Z,-1.30
2019-01-26T05:09:21.652Z,-1.30
2019-01-26T05:12:11.832Z,-1.40
2019-01-26T05:15:01.566Z,-1.40
2019-01-26T05:17:52.265Z,-1.50
2019-01-26T05:20:43.154Z,-1.50
2019-01-26T05:23:33.372Z,-1.50
2019-01-26T05:26:23.936Z,-1.50
2019-01-26T05:29:13.960Z,-1.60
2019-01-26T05:32:04.631Z,-1.60
2019-01-26T05:34:54.453Z,-1.60
2019-01-26T05:37:46.172Z,-1.70
2019-01-26T05:40:36.741Z,-1.70
2019-01-26T05:43:27.612Z,-1.80
2019-01-26T05:46:18.493Z,-1.80
2019-01-26T05:49:09.692Z,-1.90
2019-01-26T05:52:00.579Z,-1.90
2019-01-26T05:54:51.133Z,-2.00
2019-01-26T05:57:42.332Z,-2.00
2019-01-26T06:00:36.852Z,-2.00
2019-01-26T06:03:27.654Z,-2.00
2019-01-26T06:06:18.030Z,-2.10
2019-01-26T06:09:10.754Z,-2.10
2019-01-26T06:12:01.233Z,-2.10
2019-01-26T06:14:52.155Z,-2.10
2019-01-26T06:17:41.995Z,-2.20
2019-01-26T06:20:32.585Z,-2.20
2019-01-26T06:23:22.972Z,-2.20
2019-01-26T06:26:13.541Z,-2.20
2019-01-26T06:29:03.490Z,-2.20
2019-01-26T06:31:54.330Z,-2.20
2019-01-26T06:34:45.236Z,-2.20
2019-01-26T06:37:36.332Z,-2.20
2019-01-26T06:40:25.843Z,-2.20
2019-01-26T06:43:16.392Z,-2.20
2019-01-26T06:46:06.792Z,-2.20
2019-01-26T06:49:00.213Z,-2.20
2019-01-26T06:52:00.252Z,-2.20
2019-01-26T06:54:51.632Z,-2.20
2019-01-26T06:57:42.353Z,-2.20
2019-01-26T07:00:32.694Z,-2.10
2019-01-26T07:03:23.073Z,-2.10
2019-01-26T07:06:21.060Z,-2.00
2019-01-26T07:09:12.272Z,-1.90
2019-01-26T07:12:02.672Z,-1.80
2019-01-26T07:14:53.692Z,-1.60
2019-01-26T07:17:44.093Z,-1.50
2019-01-26T07:20:34.653Z,-1.30
2019-01-26T07:23:24.853Z,-1.20
2019-01-26T07:26:15.313Z,-1.10
2019-01-26T07:29:07.453Z,-0.90
2019-01-26T07:31:58.653Z,-0.80
2019-01-26T07:34:49.210Z,-0.70
2019-01-26T07:37:40.094Z,-0.50
2019-01-26T07:40:30.252Z,-0.50
2019-01-26T07:43:20.392Z,-0.30
2019-01-26T07:46:10.532Z,-0.20
2019-01-26T07:49:01.054Z,-0.10
2019-01-26T07:51:51.191Z,0.00
2019-01-26T07:54:42.354Z,0.20
2019-01-26T07:57:32.492Z,0.20
2019-01-26T08:00:25.007Z,0.30
2019-01-26T08:03:15.592Z,0.50
2019-01-26T08:06:08.712Z,0.60
2019-01-26T08:08:58.832Z,0.70
2019-01-26T08:11:49.732Z,0.80
2019-01-26T08:14:39.736Z,0.90
2019-01-26T08:17:30.492Z,1.00
2019-01-26T08:20:21.391Z,1.20
2019-01-26T08:23:11.412Z,1.30
2019-01-26T08:26:02.052Z,1.40
2019-01-26T08:28:52.432Z,1.50
2019-01-26T08:31:42.434Z,1.60
2019-01-26T08:34:32.571Z,1.70
2019-01-26T08:37:23.293Z,1.80
2019-01-26T08:40:14.333Z,1.90
2019-01-26T08:43:05.374Z,1.90
2019-01-26T08:45:55.292Z,2.00
2019-01-26T08:48:45.532Z,2.10
2019-01-26T08:51:35.193Z,2.00
2019-01-26T08:54:25.553Z,2.10
2019-01-26T08:57:16.580Z,2.10
2019-01-26T09:00:10.012Z,2.10
2019-01-26T09:03:17.712Z,2.10
2019-01-26T09:06:25.552Z,2.00
2019-01-26T09:09:16.151Z,2.00
2019-01-26T09:12:07.291Z,2.00
2019-01-26T09:14:57.528Z,2.00
2019-01-26T09:17:48.151Z,1.90
2019-01-26T09:20:39.471Z,1.90
2019-01-26T09:23:29.772Z,1.90
2019-01-26T09:26:20.172Z,1.90
2019-01-26T09:29:10.992Z,1.90
2019-01-26T09:32:01.853Z,1.90
2019-01-26T09:34:53.531Z,1.80
2019-01-26T09:37:44.478Z,1.80
2019-01-26T09:40:35.912Z,1.80
2019-01-26T09:43:26.445Z,1.80
2019-01-26T09:46:16.715Z,1.80
2019-01-26T09:49:07.792Z,1.80
2019-01-26T09:51:58.738Z,1.80
2019-01-26T09:54:49.208Z,1.80
2019-01-26T09:57:40.471Z,1.90
2019-01-26T10:00:31.735Z,1.80
2019-01-26T10:03:22.155Z,1.80
2019-01-26T10:06:13.072Z,1.80
2019-01-26T10:09:04.995Z,1.80
2019-01-26T10:11:55.213Z,1.70
2019-01-26T10:14:45.425Z,1.80
2019-01-26T10:17:35.466Z,1.80
2019-01-26T10:20:28.092Z,1.80
2019-01-26T10:23:18.492Z,1.80
2019-01-26T10:26:09.294Z,1.70
2019-01-26T10:28:59.674Z,1.60
2019-01-26T10:31:50.331Z,1.60
2019-01-26T10:34:41.872Z,1.50
2019-01-26T10:37:32.209Z,1.50
2019-01-26T10:40:44.193Z,1.50
2019-01-26T10:43:38.352Z,1.60
2019-01-26T10:46:29.552Z,1.70
2019-01-26T10:49:20.571Z,1.80
2019-01-26T10:52:11.155Z,1.90
2019-01-26T10:55:01.212Z,2.00
2019-01-26T10:57:52.252Z,2.20
2019-01-26T11:00:42.712Z,2.30
2019-01-26T11:03:33.074Z,2.30
2019-01-26T11:06:24.331Z,2.40
2019-01-26T11:09:15.031Z,2.50
2019-01-26T11:12:04.948Z,2.60
2019-01-26T11:14:55.293Z,2.80
2019-01-26T11:17:46.191Z,3.00
2019-01-26T11:20:36.732Z,3.10
2019-01-26T11:23:27.652Z,3.30
2019-01-26T11:26:18.513Z,3.40
2019-01-26T11:29:09.852Z,3.50
2019-01-26T11:32:00.173Z,3.50
2019-01-26T11:34:50.492Z,3.60
2019-01-26T11:37:40.865Z,3.60
2019-01-26T11:40:30.871Z,3.70
2019-01-26T11:43:21.112Z,3.80
2019-01-26T11:46:29.830Z,3.90
2019-01-26T11:49:20.732Z,3.90
2019-01-26T11:52:11.917Z,4.00
2019-01-26T11:55:21.252Z,4.10
2019-01-26T11:58:24.171Z,4.10
2019-01-26T12:01:32.083Z,4.20
2019-01-26T12:04:51.166Z,4.20
2019-01-26T12:07:41.693Z,4.10
2019-01-26T12:10:31.707Z,4.00
2019-01-26T12:13:22.232Z,3.90
2019-01-26T12:16:12.719Z,3.80
2019-01-26T12:19:02.992Z,3.70
2019-01-26T12:21:52.994Z,3.60
2019-01-26T12:24:43.076Z,3.70
2019-01-26T12:27:33.283Z,3.70
2019-01-26T12:30:23.933Z,3.70
2019-01-26T12:33:14.230Z,3.70
2019-01-26T12:36:04.693Z,3.60
2019-01-26T12:38:55.419Z,3.50
2019-01-26T12:41:45.843Z,3.30
2019-01-26T12:44:35.533Z,3.20
2019-01-26T12:47:26.113Z,3.10
2019-01-26T12:50:17.711Z,3.00
2019-01-26T12:53:08.432Z,2.90
2019-01-26T12:55:58.952Z,2.70
2019-01-26T12:58:49.231Z,2.50
2019-01-26T13:01:39.205Z,2.40
2019-01-26T13:04:30.333Z,2.30
2019-01-26T13:07:20.712Z,2.10
2019-01-26T13:10:23.751Z,2.00
2019-01-26T13:13:14.331Z,1.90
2019-01-26T13:16:05.972Z,1.80
2019-01-26T13:18:56.426Z,1.70
2019-01-26T13:21:46.831Z,1.70
2019-01-26T13:24:37.491Z,1.60
2019-01-26T13:27:27.573Z,1.40
2019-01-26T13:30:19.230Z,1.40
2019-01-26T13:33:10.334Z,1.30
2019-01-26T13:36:01.113Z,1.30
2019-01-26T13:38:51.813Z,1.20
2019-01-26T13:41:42.333Z,1.20
2019-01-26T13:44:32.593Z,1.10
2019-01-26T13:47:23.071Z,1.10
2019-01-26T13:50:14.678Z,1.10
2019-01-26T13:53:06.332Z,1.10
2019-01-26T13:55:56.963Z,1.10
2019-01-26T13:58:47.792Z,1.10
2019-01-26T14:01:38.513Z,1.10
2019-01-26T14:04:28.433Z,1.00
2019-01-26T14:07:19.272Z,1.00
2019-01-26T14:10:12.112Z,1.10
2019-01-26T14:13:02.735Z,1.10
2019-01-26T14:15:53.208Z,1.10
2019-01-26T14:18:43.989Z,1.10
2019-01-26T14:21:35.331Z,1.10
2019-01-26T14:24:26.172Z,1.10
2019-01-26T14:27:17.073Z,1.10
2019-01-26T14:30:13.072Z,1.10
2019-01-26T14:33:03.788Z,1.10
2019-01-26T14:35:54.493Z,1.10
2019-01-26T14:38:45.492Z,1.10
2019-01-26T14:41:36.593Z,1.10
2019-01-26T14:44:27.133Z,1.10
2019-01-26T14:47:17.332Z,1.00
2019-01-26T14:50:09.211Z,1.00
2019-01-26T14:52:59.778Z,0.90
2019-01-26T14:55:50.072Z,0.90
2019-01-26T14:58:40.912Z,0.90
2019-01-26T15:01:31.533Z,0.90
2019-01-26T15:04:22.353Z,0.80
2019-01-26T15:07:12.766Z,0.80
2019-01-26T15:10:04.312Z,0.80
2019-01-26T15:12:55.011Z,0.90
2019-01-26T15:15:46.053Z,0.90
2019-01-26T15:18:36.133Z,0.90
2019-01-26T15:21:26.920Z,0.90
2019-01-26T15:24:17.432Z,0.90
2019-01-26T15:27:07.751Z,0.90
2019-01-26T15:29:57.632Z,0.90
2019-01-26T15:32:48.247Z,0.90
2019-01-26T15:35:39.061Z,1.00
2019-01-26T15:38:30.472Z,1.00
2019-01-26T15:41:20.832Z,1.00
2019-01-26T15:44:12.112Z,0.90
2019-01-26T15:47:02.394Z,0.90
2019-01-26T15:49:52.633Z,0.90
2019-01-26T15:52:43.219Z,0.90
2019-01-26T15:55:33.614Z,1.00
2019-01-26T15:58:23.872Z,1.10
2019-01-26T16:01:15.333Z,1.20
2019-01-26T16:04:05.521Z,1.30
2019-01-26T16:06:55.892Z,1.40
2019-01-26T16:09:46.119Z,1.60
2019-01-26T16:12:36.172Z,1.80
2019-01-26T16:15:28.351Z,2.00
2019-01-26T16:18:20.333Z,1.90
2019-01-26T16:21:11.293Z,2.30
2019-01-26T16:24:02.422Z,2.80
2019-01-26T16:26:53.153Z,3.10
2019-01-26T16:29:45.332Z,3.30
2019-01-26T16:32:35.394Z,3.50
2019-01-26T16:35:28.353Z,3.70
2019-01-26T16:38:22.639Z,3.80
2019-01-26T16:41:13.652Z,3.90
2019-01-26T16:44:04.097Z,3.90
2019-01-26T16:46:54.973Z,4.00
2019-01-26T16:49:45.746Z,4.10
2019-01-26T16:52:36.255Z,4.10
2019-01-26T16:55:27.972Z,4.10
2019-01-26T16:58:18.054Z,4.10
2019-01-26T17:01:08.691Z,4.20
2019-01-26T17:04:00.213Z,4.20
2019-01-26T17:06:50.774Z,4.20
2019-01-26T17:09:41.075Z,4.30
2019-01-26T17:12:32.393Z,4.30
2019-01-26T17:15:22.339Z,4.30
2019-01-26T17:18:14.129Z,4.30
2019-01-26T17:21:04.898Z,4.30
2019-01-26T17:23:56.727Z,4.30
2019-01-26T17:26:52.615Z,4.30
2019-01-26T17:29:39.433Z,4.30
2019-01-26T17:32:30.019Z,4.30
2019-01-26T17:35:21.552Z,4.30
2019-01-26T17:38:12.442Z,4.30
2019-01-26T17:41:02.696Z,4.30
2019-01-26T17:43:53.085Z,4.30
2019-01-26T17:46:44.091Z,4.30
2019-01-26T17:49:35.353Z,4.30
2019-01-26T17:52:26.255Z,4.30
2019-01-26T17:55:17.914Z,4.30
2019-01-26T17:58:08.412Z,4.30
2019-01-26T18:01:00.338Z,4.30
2019-01-26T18:03:50.772Z,4.20
2019-01-26T18:06:41.552Z,4.30
2019-01-26T18:09:32.432Z,4.30
2019-01-26T18:12:22.670Z,4.30
2019-01-26T18:15:13.773Z,4.30
2019-01-26T18:18:04.634Z,4.30
2019-01-26T18:20:55.293Z,4.30
2019-01-26T18:23:46.612Z,4.30
2019-01-26T18:26:37.552Z,4.30
2019-01-26T18:29:27.933Z,4.30
2019-01-26T18:32:18.492Z,4.20
2019-01-26T18:35:10.092Z,4.30
2019-01-26T18:38:00.573Z,4.30
2019-01-26T18:40:51.792Z,4.30
2019-01-26T18:43:42.351Z,4.30
2019-01-26T18:46:32.912Z,4.30
2019-01-26T18:49:23.473Z,4.30
2019-01-26T18:52:14.657Z,4.40
2019-01-26T18:55:04.820Z,4.30
2019-01-26T18:57:55.651Z,4.40
2019-01-26T19:00:49.233Z,4.40
2019-01-26T19:03:48.592Z,4.40
2019-01-26T19:06:39.312Z,4.40
2019-01-26T19:09:29.534Z,4.40
2019-01-26T19:12:20.414Z,4.40
2019-01-26T19:15:13.656Z,4.40
2019-01-26T19:18:04.516Z,4.40
2019-01-26T19:20:54.719Z,4.50
2019-01-26T19:23:45.940Z,4.50
2019-01-26T19:26:36.078Z,4.50
2019-01-26T19:29:26.734Z,4.50
2019-01-26T19:32:16.912Z,4.50
2019-01-26T19:35:08.772Z,4.50
2019-01-26T19:37:59.355Z,4.50
2019-01-26T19:40:49.872Z,4.50
2019-01-26T19:43:40.378Z,4.60
2019-01-26T19:46:30.911Z,4.60
2019-01-26T19:49:21.573Z,4.70
2019-01-26T19:52:12.363Z,4.80
2019-01-26T19:55:03.172Z,4.90
2019-01-26T19:57:54.074Z,4.90
2019-01-26T20:00:44.412Z,5.00
2019-01-26T20:03:35.952Z,4.90
2019-01-26T20:06:26.695Z,5.00
2019-01-26T20:09:17.951Z,5.00
2019-01-26T20:12:08.580Z,5.00
2019-01-26T20:14:59.241Z,5.00
2019-01-26T20:17:49.528Z,5.00
2019-01-26T20:20:40.309Z,5.00
2019-01-26T20:23:32.412Z,4.90
2019-01-26T20:26:23.452Z,4.90
2019-01-26T20:29:13.790Z,4.90
2019-01-26T20:32:04.452Z,4.90
2019-01-26T20:34:54.892Z,4.90
2019-01-26T20:37:45.696Z,4.80
2019-01-26T20:40:36.812Z,4.80
2019-01-26T20:43:27.231Z,4.80
2019-01-26T20:46:18.581Z,4.80
2019-01-26T20:49:11.935Z,4.70
2019-01-26T20:52:02.274Z,4.70
2019-01-26T20:54:53.062Z,4.70
2019-01-26T20:57:43.872Z,4.60
2019-01-26T21:00:34.242Z,4.60
2019-01-26T21:03:24.331Z,4.60
2019-01-26T21:06:15.012Z,4.50
2019-01-26T21:09:08.093Z,4.50
2019-01-26T21:11:59.635Z,4.40
2019-01-26T21:14:50.111Z,4.30
2019-01-26T21:17:42.012Z,4.30
2019-01-26T21:20:32.604Z,4.30
2019-01-26T21:23:23.532Z,4.20
2019-01-26T21:26:14.352Z,4.20
2019-01-26T21:29:06.708Z,4.10
2019-01-26T21:31:57.372Z,4.00
2019-01-26T21:34:47.652Z,4.00
2019-01-26T21:37:38.232Z,3.90
2019-01-26T21:40:32.509Z,3.90
2019-01-26T21:43:23.613Z,3.90
2019-01-26T21:46:14.575Z,3.80
2019-01-26T21:49:05.555Z,3.80
2019-01-26T21:51:56.124Z,3.80
2019-01-26T21:54:46.352Z,3.70
2019-01-26T21:57:36.676Z,3.70
2019-01-26T22:00:32.575Z,3.60
2019-01-26T22:03:23.694Z,3.50
2019-01-26T22:06:14.994Z,3.30
2019-01-26T22:09:08.309Z,3.30
2019-01-26T22:11:59.942Z,3.20
2019-01-26T22:14:50.832Z,3.10
2019-01-26T22:17:42.018Z,3.00
2019-01-26T22:20:33.592Z,2.90
2019-01-26T22:23:24.412Z,2.90
2019-01-26T22:26:15.679Z,2.80
2019-01-26T22:29:06.834Z,2.80
2019-01-26T22:31:57.561Z,2.70
2019-01-26T22:34:47.554Z,2.70
2019-01-26T22:37:38.007Z,2.70
2019-01-26T22:40:36.868Z,2.60
2019-01-26T22:43:27.972Z,2.60
2019-01-26T22:46:18.652Z,2.60
2019-01-26T22:49:18.926Z,2.60
2019-01-26T22:52:09.872Z,2.60
2019-01-26T22:54:59.972Z,2.60
2019-01-26T22:57:50.977Z,2.50
2019-01-26T23:01:08.115Z,2.60
2019-01-26T23:04:25.552Z,2.50
2019-01-26T23:07:37.847Z,2.50
2019-01-26T23:11:06.014Z,2.50
2019-01-26T23:14:19.473Z,2.40
2019-01-26T23:17:56.072Z,2.40
2019-01-26T23:21:30.532Z,2.40
2019-01-26T23:24:46.933Z,2.40
2019-01-26T23:28:20.752Z,2.40
2019-01-26T23:31:18.811Z,2.30
2019-01-26T23:34:09.371Z,2.30
2019-01-26T23:37:00.732Z,2.30
2019-01-26T23:39:50.912Z,2.20
2019-01-26T23:42:42.037Z,2.20
2019-01-26T23:45:33.010Z,2.20
2019-01-26T23:48:23.232Z,2.20
2019-01-26T23:51:13.661Z,2.10
2019-01-26T23:54:05.115Z,2.10
2019-01-26T23:56:55.752Z,2.00
2019-01-26T23:59:46.637Z,2.00
